createdAt,value
2023-04-12T00:00:10.753Z,62.47
2023-04-12T00:03:21.062Z,62.48
2023-04-12T00:06:17.358Z,62.64
2023-04-12T00:09:09.820Z,62.57
2023-04-12T00:12:03.014Z,62.64
2023-04-12T00:14:48.939Z,62.55
2023-04-12T00:17:41.560Z,62.62
2023-04-12T00:20:34.155Z,62.63
2023-04-12T00:23:47.517Z,62.60
2023-04-12T00:26:40.011Z,62.79
2023-04-12T00:29:33.232Z,62.72
2023-04-12T00:32:18.228Z,62.82
2023-04-12T00:35:11.397Z,62.97
2023-04-12T00:38:06.930Z,63.09
2023-04-12T00:40:59.453Z,63.15
2023-04-12T00:43:56.003Z,63.13
2023-04-12T00:46:52.628Z,63.27
2023-04-12T00:49:46.454Z,63.36
2023-04-12T00:52:40.545Z,63.22
2023-04-12T00:55:33.251Z,63.36
2023-04-12T00:58:26.314Z,63.27
2023-04-12T01:01:10.790Z,63.29
2023-04-12T01:04:05.570Z,63.09
2023-04-12T01:07:15.867Z,63.23
2023-04-12T01:10:17.998Z,63.37
2023-04-12T01:13:22.465Z,63.40
2023-04-12T01:16:22.342Z,63.60
2023-04-12T01:19:39.764Z,63.65
2023-04-12T01:23:12.021Z,63.63
2023-04-12T01:26:24.494Z,63.85
2023-04-12T01:29:25.449Z,63.81
2023-04-12T01:32:19.407Z,63.95
2023-04-12T01:35:28.368Z,63.90
2023-04-12T01:38:22.018Z,63.84
2023-04-12T01:41:36.048Z,63.76
2023-04-12T01:44:29.395Z,63.85
2023-04-12T01:47:22.650Z,64.00
2023-04-12T01:50:27.323Z,63.98
2023-04-12T01:53:10.038Z,64.18
2023-04-12T01:56:09.168Z,64.02
2023-04-12T01:59:05.213Z,64.15
2023-04-12T02:01:58.503Z,64.22
2023-04-12T02:04:55.141Z,64.28
2023-04-12T02:07:50.249Z,64.32
2023-04-12T02:10:42.905Z,64.29
2023-04-12T02:13:35.350Z,64.39
2023-04-12T02:16:29.603Z,64.27
2023-04-12T02:19:22.398Z,64.43
2023-04-12T02:22:16.305Z,64.41
2023-04-12T02:25:11.156Z,64.36
2023-04-12T02:28:03.969Z,64.52
2023-04-12T02:30:56.848Z,64.42
2023-04-12T02:33:50.760Z,64.51
2023-04-12T02:36:45.948Z,64.52
2023-04-12T02:39:39.245Z,64.65
2023-04-12T02:42:31.925Z,64.68
2023-04-12T02:45:26.715Z,64.69
2023-04-12T02:48:22.943Z,64.66
2023-04-12T02:51:10.685Z,64.61
2023-04-12T02:54:04.032Z,64.68
2023-04-12T02:56:56.701Z,64.73
2023-04-12T02:59:54.460Z,64.73
2023-04-12T03:02:47.617Z,64.81
2023-04-12T03:05:42.803Z,64.92
2023-04-12T03:08:29.694Z,64.93
2023-04-12T03:11:29.966Z,64.97
2023-04-12T03:14:22.411Z,65.12
2023-04-12T03:17:16.767Z,64.98
2023-04-12T03:20:16.093Z,65.07
2023-04-12T03:23:08.775Z,65.19
2023-04-12T03:26:01.346Z,65.37
2023-04-12T03:28:59.394Z,65.36
2023-04-12T03:31:51.853Z,65.18
2023-04-12T03:34:45.858Z,65.22
2023-04-12T03:37:38.809Z,65.27
2023-04-12T03:40:43.235Z,65.36
2023-04-12T03:43:37.808Z,65.46
2023-04-12T03:46:33.655Z,65.39
2023-04-12T03:49:26.076Z,65.32
2023-04-12T03:52:24.047Z,65.33
2023-04-12T03:55:19.746Z,65.30
2023-04-12T03:58:13.784Z,65.53
2023-04-12T04:01:27.804Z,65.54
2023-04-12T04:04:16.527Z,65.68
2023-04-12T04:07:01.399Z,65.68
2023-04-12T04:09:57.168Z,65.65
2023-04-12T04:12:52.891Z,65.59
2023-04-12T04:15:48.281Z,65.50
2023-04-12T04:18:41.074Z,65.65
2023-04-12T04:21:33.736Z,65.80
2023-04-12T04:24:26.946Z,65.68
2023-04-12T04:27:30.967Z,66.01
2023-04-12T04:30:24.311Z,65.95
2023-04-12T04:33:37.030Z,66.07
2023-04-12T04:36:31.162Z,65.83
2023-04-12T04:39:23.566Z,66.04
2023-04-12T04:42:12.576Z,65.94
2023-04-12T04:45:14.435Z,65.93
2023-04-12T04:48:08.076Z,65.72
2023-04-12T04:51:03.234Z,65.61
2023-04-12T04:53:57.984Z,65.86
2023-04-12T04:56:56.594Z,65.74
2023-04-12T04:59:41.638Z,66.03
2023-04-12T05:02:34.742Z,65.94
2023-04-12T05:05:24.226Z,66.07
2023-04-12T05:08:30.856Z,66.00
2023-04-12T05:11:28.615Z,65.99
2023-04-12T05:14:24.469Z,66.15
2023-04-12T05:17:19.271Z,66.02
2023-04-12T05:20:13.229Z,66.02
2023-04-12T05:23:06.379Z,65.98
2023-04-12T05:25:59.026Z,65.96
2023-04-12T05:28:54.464Z,66.18
2023-04-12T05:32:02.840Z,66.33
2023-04-12T05:34:56.213Z,66.28
2023-04-12T05:37:49.402Z,66.11
2023-04-12T05:40:24.775Z,66.20
2023-04-12T05:43:18.773Z,66.28
2023-04-12T05:46:11.933Z,66.39
2023-04-12T05:49:04.874Z,66.51
2023-04-12T05:51:57.821Z,66.63
2023-04-12T05:54:50.666Z,66.46
2023-04-12T05:57:44.301Z,66.43
2023-04-12T06:00:36.759Z,66.52
2023-04-12T06:03:29.538Z,66.44
2023-04-12T06:06:22.748Z,66.53
2023-04-12T06:09:21.102Z,66.39
2023-04-12T06:12:30.995Z,66.64
2023-04-12T06:15:19.945Z,66.50
2023-04-12T06:18:13.143Z,66.64
2023-04-12T06:21:06.199Z,66.54
2023-04-12T06:24:02.323Z,66.62
2023-04-12T06:26:55.946Z,66.58
2023-04-12T06:29:48.855Z,66.46
2023-04-12T06:32:43.329Z,66.63
2023-04-12T06:35:36.124Z,66.29
2023-04-12T06:38:10.325Z,66.22
2023-04-12T06:41:15.399Z,66.35
2023-04-12T06:44:01.298Z,66.38
2023-04-12T06:46:54.060Z,66.49
2023-04-12T06:49:58.543Z,66.30
2023-04-12T06:52:44.330Z,66.13
2023-04-12T06:55:37.450Z,66.26
2023-04-12T06:58:31.054Z,66.39
2023-04-12T07:01:20.816Z,66.30
2023-04-12T07:04:04.146Z,66.37
2023-04-12T07:06:57.030Z,66.31
2023-04-12T07:09:49.782Z,66.17
2023-04-12T07:16:29.032Z,66.51
2023-04-12T07:20:20.223Z,66.10
2023-04-12T07:22:54.115Z,66.44
2023-04-12T07:26:32.737Z,66.37
2023-04-12T07:29:26.022Z,66.50
2023-04-12T07:32:24.569Z,66.48
2023-04-12T07:35:19.205Z,66.38
2023-04-12T07:38:07.332Z,66.29
2023-04-12T07:41:00.072Z,66.48
2023-04-12T07:43:53.479Z,66.53
2023-04-12T07:46:50.777Z,66.37
2023-04-12T07:49:43.660Z,66.65
2023-04-12T07:52:36.791Z,66.65
2023-04-12T07:55:27.972Z,66.72
2023-04-12T07:58:24.649Z,66.78
2023-04-12T08:01:28.625Z,66.70
2023-04-12T08:04:22.156Z,66.72
2023-04-12T08:07:16.390Z,66.48
2023-04-12T08:10:10.880Z,66.31
2023-04-12T08:13:04.109Z,66.39
2023-04-12T08:15:50.492Z,66.60
2023-04-12T08:18:43.149Z,66.49
2023-04-12T08:21:35.811Z,66.49
2023-04-12T08:24:28.758Z,66.72
2023-04-12T08:27:22.527Z,66.82
2023-04-12T08:30:18.690Z,66.83
2023-04-12T08:33:12.760Z,66.82
2023-04-12T08:36:09.119Z,66.75
2023-04-12T08:39:03.015Z,66.59
2023-04-12T08:41:57.558Z,66.75
2023-04-12T08:45:12.016Z,66.58
2023-04-12T08:48:06.296Z,66.46
2023-04-12T08:51:07.592Z,66.49
2023-04-12T08:54:00.590Z,66.42
2023-04-12T08:56:53.864Z,66.62
2023-04-12T08:59:56.041Z,66.58
2023-04-12T09:02:49.333Z,66.88
2023-04-12T09:05:42.343Z,66.97
2023-04-12T09:08:35.279Z,66.84
2023-04-12T09:11:31.152Z,66.97
2023-04-12T09:14:27.584Z,66.80
2023-04-12T09:17:29.801Z,66.76
2023-04-12T09:20:28.131Z,66.78
2023-04-12T09:23:54.297Z,66.89
2023-04-12T09:26:50.553Z,66.71
2023-04-12T09:29:45.846Z,66.52
2023-04-12T09:32:38.484Z,66.30
2023-04-12T09:35:37.741Z,66.46
2023-04-12T09:38:31.443Z,66.45
2023-04-12T09:41:32.060Z,66.63
2023-04-12T09:44:31.184Z,66.43
2023-04-12T09:47:27.218Z,66.14
2023-04-12T09:50:25.370Z,66.19
2023-04-12T09:53:26.960Z,66.42
2023-04-12T09:56:24.913Z,66.18
2023-04-12T09:59:22.779Z,66.19
2023-04-12T10:02:19.335Z,66.23
2023-04-12T10:05:14.503Z,66.17
2023-04-12T10:08:08.386Z,65.60
2023-04-12T10:11:02.793Z,65.59
2023-04-12T10:13:58.216Z,65.72
2023-04-12T10:16:56.156Z,65.92
2023-04-12T10:19:54.059Z,65.79
2023-04-12T10:22:48.592Z,65.98
2023-04-12T10:25:42.337Z,65.99
2023-04-12T10:28:35.127Z,66.09
2023-04-12T10:31:35.308Z,65.76
2023-04-12T10:34:30.427Z,65.53
2023-04-12T10:37:23.454Z,65.45
2023-04-12T10:40:24.999Z,65.21
2023-04-12T10:43:30.340Z,65.18
2023-04-12T10:46:52.103Z,65.30
2023-04-12T10:50:25.147Z,65.68
2023-04-12T10:53:31.103Z,65.64
2023-04-12T10:56:49.433Z,65.44
2023-04-12T10:59:59.806Z,64.99
2023-04-12T11:03:19.162Z,64.46
2023-04-12T11:06:26.609Z,64.84
2023-04-12T11:09:26.692Z,65.29
2023-04-12T11:12:22.677Z,65.54
2023-04-12T11:15:19.086Z,65.55
2023-04-12T11:18:12.444Z,64.85
2023-04-12T11:21:06.741Z,64.94
2023-04-12T11:24:03.596Z,64.98
2023-04-12T11:26:57.475Z,64.95
2023-04-12T11:29:54.830Z,64.91
2023-04-12T11:32:49.979Z,64.93
2023-04-12T11:35:49.559Z,64.27
2023-04-12T11:38:42.506Z,64.26
2023-04-12T11:41:40.729Z,64.46
2023-04-12T11:44:54.499Z,64.76
2023-04-12T11:47:52.362Z,64.43
2023-04-12T11:50:59.973Z,64.64
2023-04-12T11:54:01.216Z,64.26
2023-04-12T11:56:54.566Z,64.05
2023-04-12T11:59:48.945Z,64.14
2023-04-12T12:02:52.064Z,64.44
2023-04-12T12:05:54.522Z,64.67
2023-04-12T12:08:48.290Z,64.49
2023-04-12T12:11:40.939Z,64.62
2023-04-12T12:14:37.508Z,64.81
2023-04-12T12:17:30.220Z,63.82
2023-04-12T12:20:26.887Z,63.98
2023-04-12T12:23:32.729Z,64.15
2023-04-12T12:26:29.370Z,64.12
2023-04-12T12:29:23.594Z,63.70
2023-04-12T12:32:16.124Z,63.64
2023-04-12T12:35:11.697Z,63.32
2023-04-12T12:38:09.378Z,63.90
2023-04-12T12:41:01.082Z,64.24
2023-04-12T12:43:54.875Z,64.29
2023-04-12T12:46:56.818Z,64.32
2023-04-12T12:49:53.367Z,64.23
2023-04-12T12:52:47.585Z,64.05
2023-04-12T12:55:40.118Z,63.49
2023-04-12T12:58:38.359Z,63.53
2023-04-12T13:01:32.164Z,63.13
2023-04-12T13:04:25.121Z,62.66
2023-04-12T13:07:22.628Z,62.52
2023-04-12T13:10:15.421Z,63.28
2023-04-12T13:13:08.094Z,63.21
2023-04-12T13:16:04.909Z,63.56
2023-04-12T13:19:01.986Z,63.47
2023-04-12T13:22:03.424Z,63.39
2023-04-12T13:25:00.801Z,63.44
2023-04-12T13:28:26.303Z,63.15
2023-04-12T13:31:20.903Z,63.21
2023-04-12T13:34:13.774Z,63.00
2023-04-12T13:37:06.201Z,63.19
2023-04-12T13:39:59.461Z,63.24
2023-04-12T13:42:51.849Z,63.30
2023-04-12T13:45:45.075Z,62.67
2023-04-12T13:48:33.380Z,62.33
2023-04-12T13:51:26.664Z,62.50
2023-04-12T13:54:22.818Z,62.70
2023-04-12T13:57:13.897Z,62.35
2023-04-12T14:50:00.285Z,62.34
2023-04-12T14:52:53.108Z,62.04
2023-04-12T14:55:47.755Z,62.32
2023-04-12T14:58:41.919Z,62.34
2023-04-12T15:01:35.195Z,62.07
2023-04-12T15:04:35.192Z,62.01
2023-04-12T15:07:28.322Z,62.20
2023-04-12T15:10:22.931Z,62.12
2023-04-12T15:13:15.969Z,62.21
2023-04-12T15:16:10.558Z,61.98
2023-04-12T15:19:10.326Z,62.34
2023-04-12T15:22:06.315Z,62.05
2023-04-12T15:24:59.478Z,62.16
2023-04-12T15:27:56.646Z,62.01
2023-04-12T15:30:52.713Z,61.73
2023-04-12T15:33:51.856Z,62.11
2023-04-12T15:36:46.333Z,62.36
2023-04-12T15:40:04.427Z,62.05
2023-04-12T15:42:57.346Z,62.14
2023-04-12T15:46:10.600Z,61.89
2023-04-12T15:49:04.144Z,61.99
2023-04-12T15:52:15.711Z,61.89
2023-04-12T15:55:12.712Z,61.90
2023-04-12T15:58:06.202Z,62.03
2023-04-12T16:01:08.518Z,62.00
2023-04-12T16:04:01.347Z,62.15
2023-04-12T16:06:54.316Z,62.08
2023-04-12T16:09:40.336Z,62.13
2023-04-12T16:12:33.268Z,62.03
2023-04-12T16:15:26.264Z,62.00
2023-04-12T16:18:21.339Z,62.30
2023-04-12T16:21:16.894Z,62.07
2023-04-12T16:24:10.251Z,62.02
2023-04-12T16:27:07.316Z,62.30
2023-04-12T16:30:01.234Z,62.13
2023-04-12T16:32:58.415Z,62.09
2023-04-12T16:36:08.246Z,62.06
2023-04-12T16:38:55.408Z,62.07
2023-04-12T16:41:53.163Z,62.10
2023-04-12T16:44:46.017Z,62.15
2023-04-12T16:47:43.979Z,62.00
2023-04-12T16:50:36.153Z,62.16
2023-04-12T16:53:45.237Z,62.11
2023-04-12T16:56:38.178Z,62.37
2023-04-12T17:03:36.100Z,62.08
2023-04-12T17:06:30.564Z,62.24
2023-04-12T17:09:28.284Z,62.21
2023-04-12T17:12:29.601Z,61.95
2023-04-12T17:15:28.225Z,62.14
2023-04-12T17:18:21.075Z,62.15
2023-04-12T17:21:15.394Z,61.83
2023-04-12T17:24:11.081Z,62.07
2023-04-12T17:27:05.509Z,61.91
2023-04-12T17:30:00.812Z,61.97
2023-04-12T17:32:53.491Z,61.79
2023-04-12T17:35:46.682Z,61.80
2023-04-12T17:38:39.144Z,61.92
2023-04-12T17:41:31.878Z,62.02
2023-04-12T17:44:24.450Z,62.21
2023-04-12T17:47:20.172Z,62.35
2023-04-12T17:50:13.845Z,62.42
2023-04-12T17:53:05.400Z,62.39
2023-04-12T17:55:58.307Z,62.47
2023-04-12T17:58:58.024Z,62.39
2023-04-12T18:01:56.200Z,62.50
2023-04-12T18:04:59.596Z,62.53
2023-04-12T18:07:52.139Z,62.47
2023-04-12T18:10:45.605Z,62.36
2023-04-12T18:13:40.700Z,62.46
2023-04-12T18:16:35.008Z,62.55
2023-04-12T18:19:27.518Z,62.63
2023-04-12T18:22:22.818Z,62.70
2023-04-12T18:25:25.554Z,62.55
2023-04-12T18:28:20.242Z,62.66
2023-04-12T18:31:16.924Z,62.90
2023-04-12T18:34:04.516Z,63.04
2023-04-12T18:36:57.388Z,63.08
2023-04-12T18:39:53.604Z,63.09
2023-04-12T18:42:49.662Z,63.18
2023-04-12T18:45:45.275Z,62.94
2023-04-12T18:48:38.250Z,62.78
2023-04-12T18:51:37.880Z,62.79
2023-04-12T18:54:30.871Z,62.82
2023-04-12T18:57:26.653Z,62.98
2023-04-12T19:00:21.622Z,63.25
2023-04-12T19:04:00.716Z,63.43
2023-04-12T19:06:29.253Z,63.51
2023-04-12T19:09:22.522Z,63.33
2023-04-12T19:12:15.239Z,63.12
2023-04-12T19:15:11.007Z,63.15
2023-04-12T19:18:15.902Z,63.07
2023-04-12T19:21:49.093Z,62.91
2023-04-12T19:24:42.066Z,63.04
2023-04-12T19:27:37.860Z,63.05
2023-04-12T19:30:34.939Z,62.99
2023-04-12T19:33:30.611Z,62.98
2023-04-12T19:36:26.660Z,63.10
2023-04-12T19:39:27.637Z,63.06
2023-04-12T19:42:33.288Z,63.04
2023-04-12T19:45:28.373Z,63.07
2023-04-12T19:48:43.289Z,63.29
2023-04-12T19:51:38.094Z,63.29
2023-04-12T19:54:30.708Z,63.13
2023-04-12T19:57:38.871Z,63.24
2023-04-12T20:00:34.243Z,63.37
2023-04-12T20:03:30.401Z,63.52
2023-04-12T20:06:30.979Z,63.37
2023-04-12T20:09:27.616Z,63.39
2023-04-12T20:12:36.752Z,63.51
2023-04-12T20:15:20.380Z,63.52
2023-04-12T20:18:13.682Z,63.68
2023-04-12T20:21:10.394Z,63.71
2023-04-12T20:24:10.156Z,63.68
2023-04-12T20:27:11.608Z,63.64
2023-04-12T20:30:07.120Z,63.76
2023-04-12T20:33:01.323Z,63.85
2023-04-12T20:36:14.135Z,63.86
2023-04-12T20:39:10.521Z,63.91
2023-04-12T20:42:06.904Z,63.88
2023-04-12T20:44:59.642Z,64.02
2023-04-12T20:47:55.939Z,64.05
2023-04-12T20:50:50.704Z,64.09
2023-04-12T20:53:45.883Z,64.09
2023-04-12T20:56:40.374Z,64.09
2023-04-12T20:59:47.136Z,64.24
2023-04-12T21:02:45.781Z,64.25
2023-04-12T21:05:38.882Z,64.32
2023-04-12T21:08:33.912Z,64.55
2023-04-12T21:11:32.388Z,64.69
2023-04-12T21:14:25.114Z,64.91
2023-04-12T21:17:20.946Z,65.04
2023-04-12T21:20:14.929Z,65.12
2023-04-12T21:23:06.625Z,65.14
2023-04-12T21:26:02.650Z,65.21
2023-04-12T21:28:55.786Z,65.28
2023-04-12T21:31:49.330Z,65.25
2023-04-12T21:34:41.865Z,65.46
2023-04-12T21:37:35.714Z,65.23
2023-04-12T21:40:31.066Z,64.80
2023-04-12T21:43:24.107Z,64.78
2023-04-12T21:46:16.628Z,64.71
2023-04-12T21:49:07.059Z,64.87
2023-04-12T21:52:01.144Z,65.25
2023-04-12T21:54:54.401Z,65.16
2023-04-12T21:57:46.803Z,64.65
2023-04-12T22:00:30.383Z,64.53
2023-04-12T22:03:22.923Z,64.57
2023-04-12T22:06:17.117Z,64.83
2023-04-12T23:50:09.615Z,65.99
2023-04-12T23:53:03.733Z,66.12
2023-04-12T23:55:50.463Z,65.77
2023-04-12T23:58:43.063Z,65.80
